createdAt,value
2022-08-26T00:02:05.596Z,13.30
2022-08-26T00:04:52.951Z,12.23
2022-08-26T00:07:40.309Z,12.82
2022-08-26T00:10:30.654Z,13.30
2022-08-26T00:13:19.727Z,12.95
2022-08-26T00:16:08.626Z,12.45
2022-08-26T00:18:58.976Z,13.75
2022-08-26T00:21:46.015Z,13.45
2022-08-26T00:24:33.717Z,13.75
2022-08-26T00:27:21.109Z,12.85
2022-08-26T00:30:14.581Z,13.00
2022-08-26T00:33:03.288Z,12.15
2022-08-26T00:35:52.891Z,12.75
2022-08-26T00:38:40.382Z,12.73
2022-08-26T00:41:29.785Z,14.75
2022-08-26T00:44:17.391Z,13.70
2022-08-26T00:47:10.773Z,13.27
2022-08-26T00:49:59.265Z,13.75
2022-08-26T00:52:48.266Z,14.55
2022-08-26T00:55:41.745Z,13.65
2022-08-26T00:58:32.970Z,13.70
2022-08-26T01:01:23.000Z,14.07
2022-08-26T01:04:13.005Z,14.15
2022-08-26T01:07:01.342Z,14.15
2022-08-26T01:09:48.830Z,14.40
2022-08-26T01:12:41.862Z,15.40
2022-08-26T01:18:21.680Z,14.88
2022-08-26T01:21:22.264Z,14.63
2022-08-26T01:24:13.891Z,13.75
2022-08-26T01:27:05.267Z,14.23
2022-08-26T01:29:53.784Z,13.50
2022-08-26T01:32:41.788Z,13.90
2022-08-26T01:35:29.549Z,14.68
2022-08-26T01:38:18.186Z,14.27
2022-08-26T01:41:19.699Z,14.43
2022-08-26T01:44:10.140Z,14.55
2022-08-26T01:46:59.737Z,15.23
2022-08-26T01:49:52.160Z,14.95
2022-08-26T01:52:44.391Z,13.90
2022-08-26T01:55:35.686Z,15.20
2022-08-26T01:58:30.454Z,14.93
2022-08-26T02:01:18.944Z,14.50
2022-08-26T02:04:14.610Z,15.18
2022-08-26T02:07:06.727Z,14.82
2022-08-26T02:09:56.978Z,14.35
2022-08-26T02:12:44.265Z,15.35
2022-08-26T02:15:34.630Z,14.30
2022-08-26T02:18:22.567Z,15.13
2022-08-26T02:21:12.269Z,14.90
2022-08-26T02:24:09.609Z,14.60
2022-08-26T02:26:58.590Z,14.55
2022-08-26T02:29:50.443Z,15.18
2022-08-26T02:32:42.782Z,14.35
2022-08-26T02:35:30.464Z,15.15
2022-08-26T02:38:17.714Z,15.32
2022-08-26T02:41:05.751Z,14.70
2022-08-26T02:43:56.061Z,16.10
2022-08-26T02:46:43.679Z,16.17
2022-08-26T02:49:39.166Z,16.42
2022-08-26T02:52:26.995Z,15.90
2022-08-26T02:55:16.234Z,15.32
2022-08-26T02:58:03.877Z,16.88
2022-08-26T03:00:52.546Z,15.85
2022-08-26T03:03:41.248Z,15.25
2022-08-26T03:06:30.711Z,15.15
2022-08-26T03:09:19.733Z,15.07
2022-08-26T03:12:07.241Z,15.70
2022-08-26T03:14:54.972Z,17.67
2022-08-26T03:17:42.326Z,16.42
2022-08-26T03:20:30.881Z,16.05
2022-08-26T03:23:19.202Z,15.80
2022-08-26T03:26:08.454Z,15.32
2022-08-26T03:29:12.232Z,16.00
2022-08-26T03:31:58.210Z,14.85
2022-08-26T03:34:43.928Z,15.13
2022-08-26T03:37:29.927Z,13.98
2022-08-26T03:40:20.841Z,14.55
2022-08-26T03:43:11.839Z,14.07
2022-08-26T03:46:00.650Z,15.40
2022-08-26T03:48:48.359Z,13.98
2022-08-26T03:51:39.046Z,14.25
2022-08-26T03:54:26.292Z,13.70
2022-08-26T03:57:15.029Z,13.35
2022-08-26T04:00:06.364Z,13.32
2022-08-26T04:02:55.792Z,13.93
2022-08-26T04:05:42.862Z,13.77
2022-08-26T04:08:30.196Z,13.25
2022-08-26T04:11:20.715Z,13.75
2022-08-26T04:14:14.375Z,13.75
2022-08-26T04:17:06.197Z,13.38
2022-08-26T04:19:54.828Z,14.95
2022-08-26T04:22:42.847Z,13.68
2022-08-26T04:25:30.051Z,13.50
2022-08-26T04:28:17.415Z,13.48
2022-08-26T04:31:09.125Z,13.35
2022-08-26T04:33:56.810Z,13.77
2022-08-26T04:36:45.373Z,14.23
2022-08-26T04:39:32.982Z,13.63
2022-08-26T04:42:25.993Z,14.43
2022-08-26T04:45:14.176Z,14.27
2022-08-26T04:48:02.735Z,14.52
2022-08-26T04:50:52.323Z,14.85
2022-08-26T04:53:39.629Z,15.63
2022-08-26T04:56:30.056Z,14.38
2022-08-26T04:59:18.559Z,14.65
2022-08-26T05:02:07.109Z,13.68
2022-08-26T05:04:55.800Z,12.82
2022-08-26T05:07:43.300Z,14.45
2022-08-26T05:10:30.686Z,12.95
2022-08-26T05:13:20.676Z,13.63
2022-08-26T05:16:11.673Z,14.70
2022-08-26T05:18:59.021Z,14.18
2022-08-26T05:21:49.417Z,13.68
2022-08-26T05:24:36.365Z,14.00
2022-08-26T05:27:26.523Z,14.63
2022-08-26T05:30:13.909Z,14.35
2022-08-26T05:33:01.667Z,14.18
2022-08-26T05:35:49.667Z,13.60
2022-08-26T05:38:37.905Z,14.35
2022-08-26T05:41:34.351Z,13.75
2022-08-26T05:44:23.929Z,14.05
2022-08-26T05:47:10.944Z,14.35
2022-08-26T05:49:58.049Z,14.25
2022-08-26T05:52:45.471Z,15.55
2022-08-26T05:55:33.760Z,14.52
2022-08-26T05:58:23.119Z,13.80
2022-08-26T06:01:16.022Z,14.35
2022-08-26T06:06:55.082Z,13.80
2022-08-26T06:09:45.824Z,14.40
2022-08-26T06:12:35.685Z,15.35
2022-08-26T06:15:23.324Z,15.57
2022-08-26T06:18:11.928Z,15.65
2022-08-26T06:21:00.336Z,17.13
2022-08-26T06:24:02.939Z,14.15
2022-08-26T06:26:51.781Z,14.73
2022-08-26T06:29:39.421Z,13.85
2022-08-26T06:32:25.571Z,12.60
2022-08-26T06:35:13.130Z,13.23
2022-08-26T06:38:02.804Z,13.02
2022-08-26T06:40:53.289Z,12.93
2022-08-26T06:43:42.086Z,12.80
2022-08-26T06:46:31.646Z,12.32
2022-08-26T06:49:20.454Z,10.73
2022-08-26T06:52:17.187Z,10.00
2022-08-26T06:55:09.766Z,10.13
2022-08-26T06:57:59.229Z,10.52
2022-08-26T07:00:47.190Z,10.48
2022-08-26T07:03:39.638Z,11.02
2022-08-26T07:06:28.905Z,10.40
2022-08-26T07:09:16.935Z,9.65
2022-08-26T07:12:06.811Z,9.32
2022-08-26T07:14:56.012Z,9.43
2022-08-26T07:17:45.480Z,9.95
2022-08-26T07:20:37.563Z,10.02
2022-08-26T07:23:25.002Z,9.55
2022-08-26T07:26:16.416Z,9.13
2022-08-26T07:29:04.566Z,8.77
2022-08-26T07:31:52.176Z,8.85
2022-08-26T07:34:41.945Z,7.85
2022-08-26T07:37:31.037Z,7.60
2022-08-26T07:40:27.483Z,7.88
2022-08-26T07:43:15.829Z,6.78
2022-08-26T07:46:07.949Z,7.72
2022-08-26T07:49:00.619Z,6.90
2022-08-26T07:51:51.372Z,7.22
2022-08-26T07:54:40.740Z,7.38
2022-08-26T07:57:29.256Z,5.80
2022-08-26T08:00:18.167Z,6.10
2022-08-26T08:03:07.469Z,7.07
2022-08-26T08:05:55.184Z,6.45
2022-08-26T08:08:43.255Z,5.80
2022-08-26T08:11:32.466Z,5.93
2022-08-26T08:14:22.245Z,5.80
2022-08-26T08:17:09.894Z,5.80
2022-08-26T08:19:57.017Z,5.03
2022-08-26T08:22:45.451Z,5.97
2022-08-26T08:25:35.871Z,5.93
2022-08-26T08:28:23.988Z,5.78
2022-08-26T08:31:11.383Z,5.72
2022-08-26T08:33:59.340Z,5.60
2022-08-26T08:36:47.220Z,6.18
2022-08-26T08:39:34.315Z,5.88
2022-08-26T08:42:36.671Z,5.95
2022-08-26T08:45:36.283Z,5.80
2022-08-26T08:48:28.132Z,6.20
2022-08-26T08:51:23.720Z,5.80
2022-08-26T08:54:11.976Z,6.55
2022-08-26T08:57:06.393Z,6.18
2022-08-26T09:00:03.916Z,7.18
2022-08-26T09:02:59.863Z,6.78
2022-08-26T09:05:51.585Z,7.55
2022-08-26T09:08:38.707Z,7.57
2022-08-26T09:11:26.745Z,7.63
2022-08-26T09:14:14.342Z,7.72
2022-08-26T09:17:11.048Z,8.25
2022-08-26T09:20:11.104Z,8.32
2022-08-26T09:23:01.633Z,7.97
2022-08-26T09:25:52.465Z,7.53
2022-08-26T09:28:43.955Z,7.85
2022-08-26T09:31:35.330Z,6.70
2022-08-26T09:34:25.944Z,8.30
2022-08-26T09:37:15.406Z,7.20
2022-08-26T09:40:20.755Z,7.95
2022-08-26T09:43:13.690Z,7.80
2022-08-26T09:46:20.204Z,7.05
2022-08-26T09:49:26.419Z,6.43
2022-08-26T09:52:23.737Z,6.65
2022-08-26T09:55:16.276Z,6.22
2022-08-26T09:58:07.966Z,5.78
2022-08-26T10:01:01.642Z,6.20
2022-08-26T10:03:50.600Z,5.43
2022-08-26T10:06:43.069Z,5.43
2022-08-26T10:09:36.128Z,5.57
2022-08-26T10:12:25.269Z,5.20
2022-08-26T10:15:15.437Z,5.00
2022-08-26T10:18:09.575Z,4.78
2022-08-26T10:23:50.875Z,5.47
2022-08-26T10:26:47.672Z,4.35
2022-08-26T10:29:40.763Z,4.45
2022-08-26T10:32:35.160Z,4.78
2022-08-26T10:35:24.752Z,4.72
2022-08-26T10:38:16.227Z,4.93
2022-08-26T10:41:10.333Z,4.65
2022-08-26T10:44:01.587Z,5.18
2022-08-26T10:46:52.174Z,5.28
2022-08-26T10:49:40.992Z,5.68
2022-08-26T10:52:38.208Z,5.53
2022-08-26T10:55:36.666Z,5.20
2022-08-26T10:58:39.311Z,5.38
2022-08-26T11:01:50.964Z,5.20
2022-08-26T11:07:40.729Z,5.68
2022-08-26T11:10:57.942Z,6.47
2022-08-26T11:14:01.865Z,6.75
2022-08-26T11:16:53.208Z,6.88
2022-08-26T11:20:02.118Z,6.55
2022-08-26T11:22:52.472Z,6.10
2022-08-26T11:26:18.868Z,6.07
2022-08-26T11:30:01.121Z,5.80
2022-08-26T11:32:53.489Z,6.15
2022-08-26T11:35:51.182Z,6.57
2022-08-26T11:38:44.255Z,6.68
2022-08-26T11:41:32.996Z,5.72
2022-08-26T11:44:24.023Z,5.43
2022-08-26T11:47:17.845Z,6.25
2022-08-26T11:50:12.599Z,5.80
2022-08-26T11:53:06.069Z,6.40
2022-08-26T11:59:02.187Z,6.90
2022-08-26T12:01:52.671Z,5.80
2022-08-26T12:04:44.541Z,6.28
2022-08-26T12:07:34.330Z,6.57
2022-08-26T12:10:31.374Z,6.20
2022-08-26T12:13:25.065Z,5.90
2022-08-26T12:16:14.949Z,5.03
2022-08-26T12:19:22.725Z,5.80
2022-08-26T12:22:21.593Z,6.00
2022-08-26T12:25:12.666Z,4.25
2022-08-26T12:28:07.121Z,3.70
2022-08-26T12:31:04.886Z,4.05
2022-08-26T12:33:53.539Z,5.88
2022-08-26T12:36:47.050Z,5.97
2022-08-26T12:39:36.969Z,5.88
2022-08-26T12:42:43.021Z,4.57
2022-08-26T12:45:32.437Z,3.80
2022-08-26T12:48:26.509Z,3.70
2022-08-26T12:51:25.072Z,3.58
2022-08-26T12:54:17.143Z,4.53
2022-08-26T12:57:12.035Z,3.90
2022-08-26T13:00:29.343Z,4.03
2022-08-26T13:03:32.767Z,4.00
2022-08-26T13:09:32.404Z,3.63
2022-08-26T13:12:29.814Z,3.60
2022-08-26T13:15:17.889Z,4.20
2022-08-26T13:18:05.909Z,4.07
2022-08-26T13:20:55.218Z,3.78
2022-08-26T13:23:43.138Z,4.07
2022-08-26T13:26:30.957Z,3.75
2022-08-26T13:29:18.958Z,4.50
2022-08-26T13:32:08.170Z,4.15
2022-08-26T13:34:59.730Z,3.95
2022-08-26T13:37:53.212Z,4.22
2022-08-26T13:40:41.186Z,4.22
2022-08-26T13:43:29.236Z,4.38
2022-08-26T13:46:17.066Z,4.72
2022-08-26T13:49:06.031Z,4.18
2022-08-26T13:51:53.495Z,4.40
2022-08-26T13:54:42.926Z,3.80
2022-08-26T13:57:31.309Z,3.95
2022-08-26T14:00:19.795Z,4.13
2022-08-26T14:03:12.624Z,3.80
2022-08-26T14:06:01.258Z,3.65
2022-08-26T14:08:49.692Z,3.83
2022-08-26T14:11:50.837Z,4.60
2022-08-26T14:14:42.502Z,4.97
2022-08-26T14:17:30.782Z,4.70
2022-08-26T14:20:24.289Z,4.30
2022-08-26T14:23:13.978Z,4.47
2022-08-26T14:26:03.937Z,4.53
2022-08-26T14:28:53.284Z,3.78
2022-08-26T14:31:40.898Z,3.90
2022-08-26T14:34:28.780Z,3.55
2022-08-26T14:37:16.956Z,4.00
2022-08-26T14:40:06.235Z,3.80
2022-08-26T14:42:55.494Z,3.63
2022-08-26T14:45:48.511Z,3.70
2022-08-26T14:48:36.119Z,3.85
2022-08-26T14:51:24.279Z,4.05
2022-08-26T14:54:14.172Z,3.65
2022-08-26T14:57:04.002Z,3.92
2022-08-26T14:59:51.723Z,4.32
2022-08-26T15:02:40.962Z,4.35
2022-08-26T15:05:28.675Z,3.53
2022-08-26T15:08:17.045Z,4.40
2022-08-26T15:11:05.860Z,4.30
2022-08-26T15:13:53.297Z,4.65
2022-08-26T15:16:41.485Z,4.18
2022-08-26T15:19:30.878Z,4.95
2022-08-26T15:22:18.485Z,4.68
2022-08-26T15:25:06.685Z,5.57
2022-08-26T15:27:54.558Z,4.93
2022-08-26T15:30:42.043Z,5.13
2022-08-26T15:33:29.969Z,4.90
2022-08-26T15:36:19.179Z,4.75
2022-08-26T15:39:08.780Z,5.15
2022-08-26T15:41:57.684Z,5.22
2022-08-26T15:44:45.881Z,5.57
2022-08-26T15:47:35.502Z,5.22
2022-08-26T15:50:52.756Z,4.70
2022-08-26T15:53:41.755Z,5.07
2022-08-26T15:56:31.627Z,5.25
2022-08-26T15:59:20.946Z,4.85
2022-08-26T16:02:09.830Z,5.47
2022-08-26T16:04:57.075Z,5.57
2022-08-26T16:07:46.980Z,5.93
2022-08-26T16:10:38.180Z,6.30
2022-08-26T16:13:25.679Z,5.93
2022-08-26T16:16:17.700Z,6.47
2022-08-26T16:19:07.675Z,6.32
2022-08-26T16:21:56.050Z,7.03
2022-08-26T16:24:44.046Z,6.20
2022-08-26T16:27:33.673Z,5.85
2022-08-26T16:30:22.054Z,6.78
2022-08-26T16:33:10.395Z,7.13
2022-08-26T16:36:00.222Z,6.60
2022-08-26T16:38:53.529Z,6.80
2022-08-26T16:41:41.356Z,7.10
2022-08-26T16:44:44.761Z,6.72
2022-08-26T16:47:31.986Z,6.50
2022-08-26T16:50:20.841Z,6.43
2022-08-26T16:53:15.653Z,7.10
2022-08-26T16:56:04.062Z,6.88
2022-08-26T16:58:54.121Z,6.53
2022-08-26T17:01:43.543Z,6.32
2022-08-26T17:04:32.003Z,6.88
2022-08-26T17:07:19.894Z,6.65
2022-08-26T17:10:08.892Z,6.57
2022-08-26T17:12:57.126Z,6.60
2022-08-26T17:15:54.239Z,6.68
2022-08-26T17:18:47.424Z,6.63
2022-08-26T17:21:37.024Z,6.43
2022-08-26T17:24:25.376Z,7.10
2022-08-26T17:27:13.137Z,7.05
2022-08-26T17:30:00.968Z,7.15
2022-08-26T17:32:49.099Z,7.05
2022-08-26T17:35:38.691Z,6.47
2022-08-26T17:38:29.357Z,6.65
2022-08-26T17:41:17.531Z,6.72
2022-08-26T17:44:06.794Z,6.43
2022-08-26T17:46:54.496Z,6.65
2022-08-26T17:49:42.838Z,6.68
2022-08-26T17:52:32.562Z,6.60
2022-08-26T17:55:20.983Z,6.82
2022-08-26T17:58:09.790Z,6.32
2022-08-26T18:00:58.208Z,6.60
2022-08-26T18:03:46.032Z,7.15
2022-08-26T18:06:33.680Z,7.45
2022-08-26T18:09:23.218Z,7.10
2022-08-26T18:12:11.810Z,6.80
2022-08-26T18:14:59.589Z,6.88
2022-08-26T18:17:47.039Z,6.65
2022-08-26T18:20:35.498Z,6.85
2022-08-26T18:23:23.700Z,7.05
2022-08-26T18:26:20.321Z,7.45
2022-08-26T18:29:10.781Z,6.63
2022-08-26T18:31:58.457Z,7.07
2022-08-26T18:34:46.468Z,7.55
2022-08-26T18:37:35.925Z,7.30
2022-08-26T18:40:23.467Z,7.47
2022-08-26T18:43:12.830Z,7.03
2022-08-26T18:46:05.748Z,7.80
2022-08-26T18:48:54.240Z,7.28
2022-08-26T18:51:42.884Z,6.85
2022-08-26T18:54:30.740Z,6.32
2022-08-26T18:57:18.729Z,4.53
2022-08-26T19:00:09.484Z,3.75
2022-08-26T19:02:57.144Z,2.47
2022-08-26T19:05:44.823Z,2.80
2022-08-26T19:08:32.407Z,2.70
2022-08-26T19:11:32.189Z,3.30
2022-08-26T19:14:20.599Z,3.97
2022-08-26T19:17:10.120Z,7.60
2022-08-26T19:19:57.474Z,6.75
2022-08-26T19:22:46.016Z,6.40
2022-08-26T19:25:34.001Z,7.40
2022-08-26T19:28:22.422Z,7.63
2022-08-26T19:31:11.550Z,6.18
2022-08-26T19:34:00.486Z,5.53
2022-08-26T19:36:48.382Z,7.28
2022-08-26T19:39:36.173Z,3.80
2022-08-26T19:42:23.215Z,3.35
2022-08-26T19:45:25.239Z,4.35
2022-08-26T19:48:13.154Z,4.07
2022-08-26T19:51:02.155Z,4.65
2022-08-26T19:53:50.119Z,6.03
2022-08-26T19:56:37.924Z,5.65
2022-08-26T19:59:25.468Z,4.85
2022-08-26T20:02:13.822Z,5.55
2022-08-26T20:05:01.542Z,5.32
2022-08-26T20:07:51.395Z,5.60
2022-08-26T20:10:39.117Z,5.38
2022-08-26T20:13:28.912Z,5.50
2022-08-26T20:16:33.089Z,5.10
2022-08-26T20:19:37.510Z,6.60
2022-08-26T20:22:24.773Z,6.82
2022-08-26T20:25:12.614Z,5.85
2022-08-26T20:27:59.432Z,6.40
2022-08-26T20:30:47.237Z,6.50
2022-08-26T20:33:46.003Z,6.18
2022-08-26T20:36:35.062Z,7.20
2022-08-26T20:39:23.328Z,6.43
2022-08-26T20:42:20.119Z,7.28
2022-08-26T20:45:09.697Z,7.10
2022-08-26T20:47:57.571Z,6.32
2022-08-26T20:50:46.483Z,6.68
2022-08-26T20:53:34.907Z,7.60
2022-08-26T20:56:24.683Z,7.03
2022-08-26T20:59:14.323Z,6.93
2022-08-26T21:02:01.696Z,6.95
2022-08-26T21:04:49.490Z,7.25
2022-08-26T21:07:37.319Z,7.93
2022-08-26T21:10:25.086Z,7.45
2022-08-26T21:13:13.916Z,7.88
2022-08-26T21:16:03.261Z,8.25
2022-08-26T21:18:51.308Z,7.40
2022-08-26T21:21:39.288Z,8.23
2022-08-26T21:24:26.761Z,8.15
2022-08-26T21:27:17.674Z,8.18
2022-08-26T21:30:17.179Z,7.60
2022-08-26T21:33:06.387Z,8.02
2022-08-26T21:35:54.841Z,9.18
2022-08-26T21:38:43.665Z,8.50
2022-08-26T21:41:31.271Z,7.55
2022-08-26T21:44:19.747Z,8.30
2022-08-26T21:47:07.667Z,8.30
2022-08-26T21:49:57.055Z,8.40
2022-08-26T21:52:44.798Z,6.38
2022-08-26T21:55:36.682Z,6.68
2022-08-26T21:58:24.358Z,6.78
2022-08-26T22:01:13.537Z,6.07
2022-08-26T22:04:01.072Z,6.68
2022-08-26T22:06:52.331Z,6.53
2022-08-26T22:09:40.743Z,6.60
2022-08-26T22:12:32.233Z,6.93
2022-08-26T22:15:23.333Z,6.78
2022-08-26T22:18:11.304Z,7.68
2022-08-26T22:21:01.036Z,8.10
2022-08-26T22:23:50.008Z,7.18
2022-08-26T22:26:37.725Z,6.72
2022-08-26T22:29:25.848Z,7.88
2022-08-26T22:32:13.671Z,8.48
2022-08-26T22:35:01.500Z,9.20
2022-08-26T22:38:00.104Z,7.82
2022-08-26T22:40:51.878Z,7.82
2022-08-26T22:43:39.704Z,8.23
2022-08-26T22:46:28.850Z,8.75
2022-08-26T22:49:17.777Z,9.60
2022-08-26T22:52:05.252Z,9.52
2022-08-26T22:54:52.975Z,10.05
2022-08-26T22:57:42.292Z,11.27
2022-08-26T23:00:32.439Z,10.13
2022-08-26T23:03:20.688Z,9.55
2022-08-26T23:06:10.877Z,10.40
2022-08-26T23:08:59.277Z,9.57
2022-08-26T23:11:47.878Z,10.23
2022-08-26T23:14:37.658Z,10.15
2022-08-26T23:17:25.194Z,9.50
2022-08-26T23:20:15.568Z,11.88
2022-08-26T23:23:04.160Z,11.50
2022-08-26T23:25:51.483Z,10.75
2022-08-26T23:28:39.859Z,10.50
2022-08-26T23:31:28.920Z,11.65
2022-08-26T23:34:30.397Z,10.15
2022-08-26T23:37:16.734Z,11.25
2022-08-26T23:40:04.983Z,10.05
2022-08-26T23:42:52.646Z,10.32
2022-08-26T23:45:40.573Z,11.57
2022-08-26T23:48:29.905Z,10.82
2022-08-26T23:51:31.686Z,11.00
2022-08-26T23:54:18.149Z,10.60
2022-08-26T23:57:05.043Z,9.60
2022-08-26T23:59:52.498Z,10.85
